sensor_id;sensor_type;location;lat;lon;timestamp;P1;durP1;ratioP1;P2;durP2;ratioP2
29662;SDS011;16578;53.266;7.920;2022-07-17T00:00:25;3.88;;;1.80;;
29662;SDS011;16578;53.266;7.920;2022-07-17T00:02:50;5.47;;;2.33;;
29662;SDS011;16578;53.266;7.920;2022-07-17T00:05:16;6.68;;;2.40;;
29662;SDS011;16578;53.266;7.920;2022-07-17T00:07:42;5.65;;;2.60;;
29662;SDS011;16578;53.266;7.920;2022-07-17T00:10:08;4.22;;;2.10;;
29662;SDS011;16578;53.266;7.920;2022-07-17T00:12:34;4.47;;;2.30;;
29662;SDS011;16578;53.266;7.920;2022-07-17T00:15:00;4.38;;;2.45;;
29662;SDS011;16578;53.266;7.920;2022-07-17T00:17:25;4.45;;;2.47;;
29662;SDS011;16578;53.266;7.920;2022-07-17T00:19:51;5.40;;;2.05;;
29662;SDS011;16578;53.266;7.920;2022-07-17T00:22:16;5.35;;;2.67;;
29662;SDS011;16578;53.266;7.920;2022-07-17T00:24:42;4.15;;;2.25;;
29662;SDS011;16578;53.266;7.920;2022-07-17T00:27:08;5.05;;;2.20;;
29662;SDS011;16578;53.266;7.920;2022-07-17T00:29:33;5.10;;;2.40;;
29662;SDS011;16578;53.266;7.920;2022-07-17T00:31:59;7.32;;;2.42;;
29662;SDS011;16578;53.266;7.920;2022-07-17T00:34:24;6.80;;;2.20;;
29662;SDS011;16578;53.266;7.920;2022-07-17T00:36:50;3.20;;;2.20;;
29662;SDS011;16578;53.266;7.920;2022-07-17T00:39:16;5.25;;;2.13;;
29662;SDS011;16578;53.266;7.920;2022-07-17T00:41:43;7.25;;;2.67;;
29662;SDS011;16578;53.266;7.920;2022-07-17T00:44:10;3.47;;;2.15;;
29662;SDS011;16578;53.266;7.920;2022-07-17T00:46:37;6.43;;;2.47;;
29662;SDS011;16578;53.266;7.920;2022-07-17T00:49:03;4.35;;;2.45;;
29662;SDS011;16578;53.266;7.920;2022-07-17T00:51:30;3.95;;;2.58;;
29662;SDS011;16578;53.266;7.920;2022-07-17T00:53:57;3.78;;;2.00;;
29662;SDS011;16578;53.266;7.920;2022-07-17T00:56:24;5.38;;;2.55;;
29662;SDS011;16578;53.266;7.920;2022-07-17T00:58:52;3.95;;;2.00;;
29662;SDS011;16578;53.266;7.920;2022-07-17T01:01:17;5.80;;;2.92;;
29662;SDS011;16578;53.266;7.920;2022-07-17T01:03:43;5.22;;;2.38;;
29662;SDS011;16578;53.266;7.920;2022-07-17T01:06:09;4.93;;;2.60;;
29662;SDS011;16578;53.266;7.920;2022-07-17T01:08:34;4.45;;;2.10;;
29662;SDS011;16578;53.266;7.920;2022-07-17T01:11:01;5.80;;;2.30;;
29662;SDS011;16578;53.266;7.920;2022-07-17T01:13:27;6.78;;;3.08;;
29662;SDS011;16578;53.266;7.920;2022-07-17T01:15:53;4.25;;;2.33;;
29662;SDS011;16578;53.266;7.920;2022-07-17T01:18:19;5.28;;;2.40;;
29662;SDS011;16578;53.266;7.920;2022-07-17T01:20:46;5.00;;;2.40;;
29662;SDS011;16578;53.266;7.920;2022-07-17T01:23:12;5.65;;;2.50;;
29662;SDS011;16578;53.266;7.920;2022-07-17T01:25:39;6.07;;;2.88;;
29662;SDS011;16578;53.266;7.920;2022-07-17T01:28:05;4.75;;;2.15;;
29662;SDS011;16578;53.266;7.920;2022-07-17T01:30:31;4.40;;;2.67;;
29662;SDS011;16578;53.266;7.920;2022-07-17T01:32:57;5.43;;;2.60;;
29662;SDS011;16578;53.266;7.920;2022-07-17T01:35:23;6.97;;;2.42;;
29662;SDS011;16578;53.266;7.920;2022-07-17T01:37:49;4.95;;;2.20;;
29662;SDS011;16578;53.266;7.920;2022-07-17T01:40:15;5.13;;;2.10;;
29662;SDS011;16578;53.266;7.920;2022-07-17T01:42:42;6.30;;;2.58;;
29662;SDS011;16578;53.266;7.920;2022-07-17T01:45:14;3.97;;;2.35;;
29662;SDS011;16578;53.266;7.920;2022-07-17T01:47:40;5.70;;;3.03;;
29662;SDS011;16578;53.266;7.920;2022-07-17T01:50:06;4.30;;;2.30;;
29662;SDS011;16578;53.266;7.920;2022-07-17T01:52:34;3.80;;;2.75;;
29662;SDS011;16578;53.266;7.920;2022-07-17T01:55:02;2.95;;;2.20;;
29662;SDS011;16578;53.266;7.920;2022-07-17T01:57:29;5.55;;;2.22;;
29662;SDS011;16578;53.266;7.920;2022-07-17T01:59:55;5.63;;;2.65;;
29662;SDS011;16578;53.266;7.920;2022-07-17T02:02:20;6.50;;;2.60;;
29662;SDS011;16578;53.266;7.920;2022-07-17T02:04:46;4.82;;;2.45;;
29662;SDS011;16578;53.266;7.920;2022-07-17T02:07:11;6.00;;;2.70;;
29662;SDS011;16578;53.266;7.920;2022-07-17T02:09:37;3.42;;;2.47;;
29662;SDS011;16578;53.266;7.920;2022-07-17T02:12:03;5.32;;;2.45;;
29662;SDS011;16578;53.266;7.920;2022-07-17T02:14:29;5.85;;;2.60;;
29662;SDS011;16578;53.266;7.920;2022-07-17T02:16:55;3.53;;;2.35;;
29662;SDS011;16578;53.266;7.920;2022-07-17T02:19:21;4.35;;;2.55;;
29662;SDS011;16578;53.266;7.920;2022-07-17T02:21:46;5.20;;;2.80;;
29662;SDS011;16578;53.266;7.920;2022-07-17T02:24:12;4.75;;;3.00;;
29662;SDS011;16578;53.266;7.920;2022-07-17T02:26:38;6.03;;;3.22;;
29662;SDS011;16578;53.266;7.920;2022-07-17T02:29:04;3.88;;;2.63;;
29662;SDS011;16578;53.266;7.920;2022-07-17T02:31:29;4.22;;;2.83;;
29662;SDS011;16578;53.266;7.920;2022-07-17T02:33:55;3.65;;;2.75;;
29662;SDS011;16578;53.266;7.920;2022-07-17T02:36:21;5.93;;;2.88;;
29662;SDS011;16578;53.266;7.920;2022-07-17T02:38:46;4.75;;;3.00;;
29662;SDS011;16578;53.266;7.920;2022-07-17T02:41:13;6.22;;;3.13;;
29662;SDS011;16578;53.266;7.920;2022-07-17T02:43:38;6.75;;;3.33;;
29662;SDS011;16578;53.266;7.920;2022-07-17T02:46:04;5.10;;;3.15;;
29662;SDS011;16578;53.266;7.920;2022-07-17T02:48:30;4.25;;;2.92;;
29662;SDS011;16578;53.266;7.920;2022-07-17T02:50:55;5.35;;;2.83;;
29662;SDS011;16578;53.266;7.920;2022-07-17T02:53:21;4.63;;;3.03;;
29662;SDS011;16578;53.266;7.920;2022-07-17T02:55:46;4.82;;;2.92;;
29662;SDS011;16578;53.266;7.920;2022-07-17T02:58:12;6.38;;;3.03;;
29662;SDS011;16578;53.266;7.920;2022-07-17T03:00:38;2.92;;;2.65;;
29662;SDS011;16578;53.266;7.920;2022-07-17T03:03:04;4.95;;;2.95;;
29662;SDS011;16578;53.266;7.920;2022-07-17T03:05:30;3.53;;;2.63;;
29662;SDS011;16578;53.266;7.920;2022-07-17T03:07:55;8.43;;;2.80;;
29662;SDS011;16578;53.266;7.920;2022-07-17T03:10:21;4.97;;;2.67;;
29662;SDS011;16578;53.266;7.920;2022-07-17T03:12:47;5.00;;;3.13;;
29662;SDS011;16578;53.266;7.920;2022-07-17T03:15:13;4.78;;;3.28;;
29662;SDS011;16578;53.266;7.920;2022-07-17T03:17:39;5.05;;;3.22;;
29662;SDS011;16578;53.266;7.920;2022-07-17T03:20:05;4.60;;;3.25;;
29662;SDS011;16578;53.266;7.920;2022-07-17T03:22:32;8.20;;;3.90;;
29662;SDS011;16578;53.266;7.920;2022-07-17T03:24:58;6.13;;;3.40;;
29662;SDS011;16578;53.266;7.920;2022-07-17T03:27:23;4.60;;;3.50;;
29662;SDS011;16578;53.266;7.920;2022-07-17T03:29:49;6.30;;;3.95;;
29662;SDS011;16578;53.266;7.920;2022-07-17T03:32:14;4.18;;;2.78;;
29662;SDS011;16578;53.266;7.920;2022-07-17T03:34:40;3.55;;;2.85;;
29662;SDS011;16578;53.266;7.920;2022-07-17T03:37:06;5.25;;;3.40;;
29662;SDS011;16578;53.266;7.920;2022-07-17T03:39:31;4.07;;;2.75;;
29662;SDS011;16578;53.266;7.920;2022-07-17T03:41:57;4.00;;;2.65;;
29662;SDS011;16578;53.266;7.920;2022-07-17T03:44:23;5.47;;;2.63;;
29662;SDS011;16578;53.266;7.920;2022-07-17T03:46:48;6.07;;;2.97;;
29662;SDS011;16578;53.266;7.920;2022-07-17T03:49:14;3.05;;;2.70;;
29662;SDS011;16578;53.266;7.920;2022-07-17T03:51:40;3.97;;;2.90;;
29662;SDS011;16578;53.266;7.920;2022-07-17T03:54:06;7.10;;;3.25;;
29662;SDS011;16578;53.266;7.920;2022-07-17T03:56:31;4.55;;;2.75;;
29662;SDS011;16578;53.266;7.920;2022-07-17T03:58:57;5.70;;;2.97;;
29662;SDS011;16578;53.266;7.920;2022-07-17T04:01:23;4.82;;;2.95;;
29662;SDS011;16578;53.266;7.920;2022-07-17T04:03:48;4.65;;;3.20;;
29662;SDS011;16578;53.266;7.920;2022-07-17T04:06:14;5.90;;;3.22;;
29662;SDS011;16578;53.266;7.920;2022-07-17T04:08:39;6.50;;;3.28;;
29662;SDS011;16578;53.266;7.920;2022-07-17T04:11:05;4.93;;;3.40;;
29662;SDS011;16578;53.266;7.920;2022-07-17T04:13:31;4.28;;;3.15;;
29662;SDS011;16578;53.266;7.920;2022-07-17T04:15:56;4.93;;;3.10;;
29662;SDS011;16578;53.266;7.920;2022-07-17T04:18:26;4.68;;;3.30;;
29662;SDS011;16578;53.266;7.920;2022-07-17T04:20:58;5.20;;;3.60;;
29662;SDS011;16578;53.266;7.920;2022-07-17T04:23:27;3.85;;;2.80;;
29662;SDS011;16578;53.266;7.920;2022-07-17T04:25:52;5.63;;;3.60;;
29662;SDS011;16578;53.266;7.920;2022-07-17T04:28:18;3.92;;;3.13;;
29662;SDS011;16578;53.266;7.920;2022-07-17T04:30:44;4.53;;;2.85;;
29662;SDS011;16578;53.266;7.920;2022-07-17T04:33:10;5.00;;;3.35;;
29662;SDS011;16578;53.266;7.920;2022-07-17T04:35:36;6.15;;;3.28;;
29662;SDS011;16578;53.266;7.920;2022-07-17T04:38:03;7.22;;;3.20;;
29662;SDS011;16578;53.266;7.920;2022-07-17T04:40:30;3.90;;;2.80;;
29662;SDS011;16578;53.266;7.920;2022-07-17T04:42:56;6.63;;;2.78;;
29662;SDS011;16578;53.266;7.920;2022-07-17T04:45:22;7.78;;;3.28;;
29662;SDS011;16578;53.266;7.920;2022-07-17T04:47:47;3.97;;;3.13;;
29662;SDS011;16578;53.266;7.920;2022-07-17T04:50:13;4.80;;;3.10;;
29662;SDS011;16578;53.266;7.920;2022-07-17T04:52:39;4.75;;;3.17;;
29662;SDS011;16578;53.266;7.920;2022-07-17T04:55:05;5.78;;;3.15;;
29662;SDS011;16578;53.266;7.920;2022-07-17T04:57:30;4.57;;;3.10;;
29662;SDS011;16578;53.266;7.920;2022-07-17T04:59:56;5.65;;;3.42;;
29662;SDS011;16578;53.266;7.920;2022-07-17T05:02:22;4.68;;;3.20;;
29662;SDS011;16578;53.266;7.920;2022-07-17T05:04:48;6.35;;;2.97;;
29662;SDS011;16578;53.266;7.920;2022-07-17T05:07:14;7.00;;;2.95;;
29662;SDS011;16578;53.266;7.920;2022-07-17T05:09:39;4.07;;;2.88;;
29662;SDS011;16578;53.266;7.920;2022-07-17T05:12:05;4.30;;;2.80;;
29662;SDS011;16578;53.266;7.920;2022-07-17T05:14:31;7.43;;;3.20;;
29662;SDS011;16578;53.266;7.920;2022-07-17T05:16:56;4.25;;;2.95;;
29662;SDS011;16578;53.266;7.920;2022-07-17T05:19:22;4.82;;;2.95;;
29662;SDS011;16578;53.266;7.920;2022-07-17T05:21:48;6.95;;;2.78;;
29662;SDS011;16578;53.266;7.920;2022-07-17T05:24:14;3.95;;;2.50;;
29662;SDS011;16578;53.266;7.920;2022-07-17T05:26:40;4.95;;;2.65;;
29662;SDS011;16578;53.266;7.920;2022-07-17T05:29:06;6.95;;;3.17;;
29662;SDS011;16578;53.266;7.920;2022-07-17T05:31:32;5.28;;;3.28;;
29662;SDS011;16578;53.266;7.920;2022-07-17T05:33:57;6.95;;;2.72;;
29662;SDS011;16578;53.266;7.920;2022-07-17T05:36:23;3.60;;;2.50;;
29662;SDS011;16578;53.266;7.920;2022-07-17T05:38:48;3.25;;;2.95;;
29662;SDS011;16578;53.266;7.920;2022-07-17T05:41:14;12.52;;;3.03;;
29662;SDS011;16578;53.266;7.920;2022-07-17T05:43:40;4.72;;;3.13;;
29662;SDS011;16578;53.266;7.920;2022-07-17T05:46:05;5.32;;;3.13;;
29662;SDS011;16578;53.266;7.920;2022-07-17T05:48:31;3.30;;;2.80;;
29662;SDS011;16578;53.266;7.920;2022-07-17T05:50:57;5.18;;;3.03;;
29662;SDS011;16578;53.266;7.920;2022-07-17T05:53:22;6.85;;;2.70;;
29662;SDS011;16578;53.266;7.920;2022-07-17T05:55:48;5.00;;;3.15;;
29662;SDS011;16578;53.266;7.920;2022-07-17T05:58:14;6.00;;;3.20;;
29662;SDS011;16578;53.266;7.920;2022-07-17T06:00:40;4.90;;;3.10;;
29662;SDS011;16578;53.266;7.920;2022-07-17T06:03:05;5.32;;;3.05;;
29662;SDS011;16578;53.266;7.920;2022-07-17T06:05:31;4.97;;;2.70;;
29662;SDS011;16578;53.266;7.920;2022-07-17T06:07:57;5.13;;;2.65;;
29662;SDS011;16578;53.266;7.920;2022-07-17T06:10:23;6.82;;;2.60;;
29662;SDS011;16578;53.266;7.920;2022-07-17T06:12:50;4.80;;;3.17;;
29662;SDS011;16578;53.266;7.920;2022-07-17T06:15:17;5.10;;;2.43;;
29662;SDS011;16578;53.266;7.920;2022-07-17T06:17:44;2.97;;;2.40;;
29662;SDS011;16578;53.266;7.920;2022-07-17T06:20:09;7.65;;;2.60;;
29662;SDS011;16578;53.266;7.920;2022-07-17T06:22:36;5.15;;;2.50;;
29662;SDS011;16578;53.266;7.920;2022-07-17T06:25:02;3.25;;;1.92;;
29662;SDS011;16578;53.266;7.920;2022-07-17T06:27:28;3.53;;;2.10;;
29662;SDS011;16578;53.266;7.920;2022-07-17T06:29:53;8.80;;;1.98;;
29662;SDS011;16578;53.266;7.920;2022-07-17T06:32:19;3.53;;;1.98;;
29662;SDS011;16578;53.266;7.920;2022-07-17T06:34:44;4.32;;;1.83;;
29662;SDS011;16578;53.266;7.920;2022-07-17T06:37:10;2.65;;;1.80;;
29662;SDS011;16578;53.266;7.920;2022-07-17T06:39:35;4.22;;;2.08;;
29662;SDS011;16578;53.266;7.920;2022-07-17T06:42:01;4.30;;;1.73;;
29662;SDS011;16578;53.266;7.920;2022-07-17T06:44:27;2.53;;;1.80;;
29662;SDS011;16578;53.266;7.920;2022-07-17T06:46:53;4.47;;;1.95;;
29662;SDS011;16578;53.266;7.920;2022-07-17T06:49:18;2.72;;;1.65;;
29662;SDS011;16578;53.266;7.920;2022-07-17T06:51:44;5.75;;;1.73;;
29662;SDS011;16578;53.266;7.920;2022-07-17T06:54:11;4.15;;;2.20;;
29662;SDS011;16578;53.266;7.920;2022-07-17T06:56:37;8.13;;;1.73;;
29662;SDS011;16578;53.266;7.920;2022-07-17T06:59:03;3.40;;;1.80;;
29662;SDS011;16578;53.266;7.920;2022-07-17T07:03:58;4.32;;;1.58;;
29662;SDS011;16578;53.266;7.920;2022-07-17T07:06:23;7.57;;;2.00;;
29662;SDS011;16578;53.266;7.920;2022-07-17T07:08:49;2.45;;;1.42;;
29662;SDS011;16578;53.266;7.920;2022-07-17T07:11:14;5.13;;;1.80;;
29662;SDS011;16578;53.266;7.920;2022-07-17T07:13:40;4.50;;;1.73;;
29662;SDS011;16578;53.266;7.920;2022-07-17T07:16:05;3.45;;;1.70;;
29662;SDS011;16578;53.266;7.920;2022-07-17T07:18:31;4.10;;;1.50;;
29662;SDS011;16578;53.266;7.920;2022-07-17T07:20:57;3.20;;;1.55;;
29662;SDS011;16578;53.266;7.920;2022-07-17T07:23:22;3.78;;;1.35;;
29662;SDS011;16578;53.266;7.920;2022-07-17T07:25:48;3.85;;;1.33;;
29662;SDS011;16578;53.266;7.920;2022-07-17T07:28:13;4.10;;;1.50;;
29662;SDS011;16578;53.266;7.920;2022-07-17T07:30:39;6.32;;;1.92;;
29662;SDS011;16578;53.266;7.920;2022-07-17T07:33:04;2.53;;;1.40;;
29662;SDS011;16578;53.266;7.920;2022-07-17T07:35:30;6.75;;;1.83;;
29662;SDS011;16578;53.266;7.920;2022-07-17T07:37:55;3.92;;;1.80;;
29662;SDS011;16578;53.266;7.920;2022-07-17T07:40:21;3.65;;;2.00;;
29662;SDS011;16578;53.266;7.920;2022-07-17T07:42:46;6.65;;;2.47;;
29662;SDS011;16578;53.266;7.920;2022-07-17T07:45:12;3.58;;;1.73;;
29662;SDS011;16578;53.266;7.920;2022-07-17T07:47:41;5.65;;;2.42;;
29662;SDS011;16578;53.266;7.920;2022-07-17T07:50:09;7.40;;;1.73;;
29662;SDS011;16578;53.266;7.920;2022-07-17T07:52:36;3.20;;;1.55;;
29662;SDS011;16578;53.266;7.920;2022-07-17T07:55:02;5.75;;;2.03;;
29662;SDS011;16578;53.266;7.920;2022-07-17T07:57:28;3.90;;;1.80;;
29662;SDS011;16578;53.266;7.920;2022-07-17T07:59:54;4.35;;;1.55;;
29662;SDS011;16578;53.266;7.920;2022-07-17T08:02:19;6.15;;;1.67;;
29662;SDS011;16578;53.266;7.920;2022-07-17T08:04:45;2.58;;;1.35;;
29662;SDS011;16578;53.266;7.920;2022-07-17T08:07:10;4.47;;;1.52;;
29662;SDS011;16578;53.266;7.920;2022-07-17T08:09:36;4.88;;;2.08;;
29662;SDS011;16578;53.266;7.920;2022-07-17T08:12:01;3.78;;;1.58;;
29662;SDS011;16578;53.266;7.920;2022-07-17T08:14:27;5.30;;;1.80;;
29662;SDS011;16578;53.266;7.920;2022-07-17T08:16:53;3.88;;;1.45;;
29662;SDS011;16578;53.266;7.920;2022-07-17T08:19:18;4.38;;;1.10;;
29662;SDS011;16578;53.266;7.920;2022-07-17T08:21:44;4.82;;;1.75;;
29662;SDS011;16578;53.266;7.920;2022-07-17T08:24:10;5.32;;;1.60;;
29662;SDS011;16578;53.266;7.920;2022-07-17T08:26:35;5.85;;;1.50;;
29662;SDS011;16578;53.266;7.920;2022-07-17T08:29:01;4.07;;;1.38;;
29662;SDS011;16578;53.266;7.920;2022-07-17T08:31:26;3.80;;;1.15;;
29662;SDS011;16578;53.266;7.920;2022-07-17T08:33:52;3.97;;;1.38;;
29662;SDS011;16578;53.266;7.920;2022-07-17T08:36:17;3.70;;;1.30;;
29662;SDS011;16578;53.266;7.920;2022-07-17T08:38:43;2.35;;;1.20;;
29662;SDS011;16578;53.266;7.920;2022-07-17T08:41:08;4.25;;;1.30;;
29662;SDS011;16578;53.266;7.920;2022-07-17T08:43:40;3.60;;;1.10;;
29662;SDS011;16578;53.266;7.920;2022-07-17T08:46:06;4.45;;;1.85;;
29662;SDS011;16578;53.266;7.920;2022-07-17T08:51:01;2.65;;;1.20;;
29662;SDS011;16578;53.266;7.920;2022-07-17T08:53:27;4.07;;;1.27;;
29662;SDS011;16578;53.266;7.920;2022-07-17T08:55:52;3.72;;;1.40;;
29662;SDS011;16578;53.266;7.920;2022-07-17T08:58:18;4.53;;;1.50;;
29662;SDS011;16578;53.266;7.920;2022-07-17T09:00:44;2.28;;;1.20;;
29662;SDS011;16578;53.266;7.920;2022-07-17T09:03:10;3.10;;;1.00;;
29662;SDS011;16578;53.266;7.920;2022-07-17T09:05:37;3.78;;;1.48;;
29662;SDS011;16578;53.266;7.920;2022-07-17T09:08:05;4.22;;;1.73;;
29662;SDS011;16578;53.266;7.920;2022-07-17T09:10:37;2.85;;;1.10;;
29662;SDS011;16578;53.266;7.920;2022-07-17T09:13:14;1.88;;;1.08;;
29662;SDS011;16578;53.266;7.920;2022-07-17T09:15:51;2.72;;;1.25;;
29662;SDS011;16578;53.266;7.920;2022-07-17T09:18:47;4.70;;;1.20;;
29662;SDS011;16578;53.266;7.920;2022-07-17T09:21:18;3.10;;;1.08;;
29662;SDS011;16578;53.266;7.920;2022-07-17T09:23:56;4.00;;;1.35;;
29662;SDS011;16578;53.266;7.920;2022-07-17T09:26:22;2.78;;;1.30;;
29662;SDS011;16578;53.266;7.920;2022-07-17T09:28:48;2.15;;;1.08;;
29662;SDS011;16578;53.266;7.920;2022-07-17T09:31:23;2.58;;;1.10;;
29662;SDS011;16578;53.266;7.920;2022-07-17T09:33:53;2.55;;;1.15;;
29662;SDS011;16578;53.266;7.920;2022-07-17T09:36:19;3.10;;;1.23;;
29662;SDS011;16578;53.266;7.920;2022-07-17T09:38:45;1.40;;;1.00;;
29662;SDS011;16578;53.266;7.920;2022-07-17T09:41:15;5.22;;;1.60;;
29662;SDS011;16578;53.266;7.920;2022-07-17T09:43:46;4.28;;;1.30;;
29662;SDS011;16578;53.266;7.920;2022-07-17T09:46:18;2.35;;;1.20;;
29662;SDS011;16578;53.266;7.920;2022-07-17T09:48:49;3.70;;;1.40;;
29662;SDS011;16578;53.266;7.920;2022-07-17T09:51:17;2.03;;;1.20;;
29662;SDS011;16578;53.266;7.920;2022-07-17T09:53:46;4.20;;;1.48;;
29662;SDS011;16578;53.266;7.920;2022-07-17T09:56:17;5.00;;;1.43;;
29662;SDS011;16578;53.266;7.920;2022-07-17T09:58:53;3.38;;;1.05;;
29662;SDS011;16578;53.266;7.920;2022-07-17T10:01:22;5.85;;;1.13;;
29662;SDS011;16578;53.266;7.920;2022-07-17T10:03:48;4.38;;;1.45;;
29662;SDS011;16578;53.266;7.920;2022-07-17T10:06:15;1.52;;;0.90;;
29662;SDS011;16578;53.266;7.920;2022-07-17T10:08:41;3.63;;;1.40;;
29662;SDS011;16578;53.266;7.920;2022-07-17T10:11:07;3.97;;;1.35;;
29662;SDS011;16578;53.266;7.920;2022-07-17T10:13:35;1.52;;;1.13;;
29662;SDS011;16578;53.266;7.920;2022-07-17T10:16:04;2.13;;;1.05;;
29662;SDS011;16578;53.266;7.920;2022-07-17T10:18:33;1.48;;;1.10;;
29662;SDS011;16578;53.266;7.920;2022-07-17T10:21:12;3.13;;;1.15;;
29662;SDS011;16578;53.266;7.920;2022-07-17T10:23:40;3.42;;;1.50;;
29662;SDS011;16578;53.266;7.920;2022-07-17T10:26:07;3.15;;;1.70;;
29662;SDS011;16578;53.266;7.920;2022-07-17T10:28:40;3.00;;;1.40;;
29662;SDS011;16578;53.266;7.920;2022-07-17T10:31:07;2.67;;;1.27;;
29662;SDS011;16578;53.266;7.920;2022-07-17T10:33:33;1.98;;;1.02;;
29662;SDS011;16578;53.266;7.920;2022-07-17T10:35:59;6.00;;;3.30;;
29662;SDS011;16578;53.266;7.920;2022-07-17T10:38:26;5.22;;;2.53;;
29662;SDS011;16578;53.266;7.920;2022-07-17T10:41:01;4.22;;;1.70;;
29662;SDS011;16578;53.266;7.920;2022-07-17T10:43:39;2.17;;;1.10;;
29662;SDS011;16578;53.266;7.920;2022-07-17T10:46:09;2.30;;;1.30;;
29662;SDS011;16578;53.266;7.920;2022-07-17T10:48:34;1.88;;;1.02;;
29662;SDS011;16578;53.266;7.920;2022-07-17T10:51:00;1.42;;;0.85;;
29662;SDS011;16578;53.266;7.920;2022-07-17T10:53:32;2.05;;;1.13;;
29662;SDS011;16578;53.266;7.920;2022-07-17T10:56:02;0.77;;;0.73;;
29662;SDS011;16578;53.266;7.920;2022-07-17T10:58:36;2.40;;;1.20;;
29662;SDS011;16578;53.266;7.920;2022-07-17T11:03:40;3.35;;;1.42;;
29662;SDS011;16578;53.266;7.920;2022-07-17T11:06:08;2.38;;;1.10;;
29662;SDS011;16578;53.266;7.920;2022-07-17T11:11:10;2.58;;;1.15;;
29662;SDS011;16578;53.266;7.920;2022-07-17T11:13:36;2.08;;;1.08;;
29662;SDS011;16578;53.266;7.920;2022-07-17T11:16:01;1.98;;;1.13;;
29662;SDS011;16578;53.266;7.920;2022-07-17T11:18:27;3.15;;;1.25;;
29662;SDS011;16578;53.266;7.920;2022-07-17T11:23:25;2.05;;;1.15;;
29662;SDS011;16578;53.266;7.920;2022-07-17T11:28:32;2.65;;;1.20;;
29662;SDS011;16578;53.266;7.920;2022-07-17T11:31:04;2.97;;;1.30;;
29662;SDS011;16578;53.266;7.920;2022-07-17T11:33:50;4.18;;;1.35;;
29662;SDS011;16578;53.266;7.920;2022-07-17T11:36:25;3.08;;;1.20;;
29662;SDS011;16578;53.266;7.920;2022-07-17T11:38:51;2.80;;;1.20;;
29662;SDS011;16578;53.266;7.920;2022-07-17T11:41:18;2.35;;;1.50;;
29662;SDS011;16578;53.266;7.920;2022-07-17T11:43:44;2.83;;;1.45;;
29662;SDS011;16578;53.266;7.920;2022-07-17T11:46:10;1.90;;;1.42;;
29662;SDS011;16578;53.266;7.920;2022-07-17T11:48:39;2.50;;;1.20;;
29662;SDS011;16578;53.266;7.920;2022-07-17T11:51:06;3.70;;;1.70;;
29662;SDS011;16578;53.266;7.920;2022-07-17T11:53:32;4.25;;;1.77;;
29662;SDS011;16578;53.266;7.920;2022-07-17T11:55:59;3.07;;;1.47;;
29662;SDS011;16578;53.266;7.920;2022-07-17T11:58:25;3.38;;;1.60;;
29662;SDS011;16578;53.266;7.920;2022-07-17T12:01:01;4.82;;;1.60;;
29662;SDS011;16578;53.266;7.920;2022-07-17T12:05:56;4.32;;;1.33;;
29662;SDS011;16578;53.266;7.920;2022-07-17T12:08:22;1.85;;;1.23;;
29662;SDS011;16578;53.266;7.920;2022-07-17T12:10:58;4.22;;;1.60;;
29662;SDS011;16578;53.266;7.920;2022-07-17T12:13:39;2.70;;;1.42;;
29662;SDS011;16578;53.266;7.920;2022-07-17T12:19:12;1.63;;;1.20;;
29662;SDS011;16578;53.266;7.920;2022-07-17T12:22:01;4.75;;;1.60;;
29662;SDS011;16578;53.266;7.920;2022-07-17T12:24:29;4.40;;;1.63;;
29662;SDS011;16578;53.266;7.920;2022-07-17T12:27:06;4.60;;;1.75;;
29662;SDS011;16578;53.266;7.920;2022-07-17T12:29:33;3.50;;;1.63;;
29662;SDS011;16578;53.266;7.920;2022-07-17T12:32:09;2.40;;;1.63;;
29662;SDS011;16578;53.266;7.920;2022-07-17T12:34:37;3.72;;;1.70;;
29662;SDS011;16578;53.266;7.920;2022-07-17T12:37:10;2.92;;;1.60;;
29662;SDS011;16578;53.266;7.920;2022-07-17T12:39:36;3.38;;;1.77;;
29662;SDS011;16578;53.266;7.920;2022-07-17T12:42:02;3.38;;;1.55;;
29662;SDS011;16578;53.266;7.920;2022-07-17T12:44:28;3.33;;;1.65;;
29662;SDS011;16578;53.266;7.920;2022-07-17T12:46:54;2.67;;;1.73;;
29662;SDS011;16578;53.266;7.920;2022-07-17T12:49:19;1.83;;;1.33;;
29662;SDS011;16578;53.266;7.920;2022-07-17T12:51:45;2.95;;;1.85;;
29662;SDS011;16578;53.266;7.920;2022-07-17T12:54:11;2.55;;;1.92;;
29662;SDS011;16578;53.266;7.920;2022-07-17T12:56:37;3.13;;;1.67;;
29662;SDS011;16578;53.266;7.920;2022-07-17T12:59:02;3.35;;;1.70;;
29662;SDS011;16578;53.266;7.920;2022-07-17T13:01:28;4.63;;;1.77;;
29662;SDS011;16578;53.266;7.920;2022-07-17T13:03:54;2.28;;;1.50;;
29662;SDS011;16578;53.266;7.920;2022-07-17T13:06:20;2.97;;;1.70;;
29662;SDS011;16578;53.266;7.920;2022-07-17T13:08:46;2.63;;;1.60;;
29662;SDS011;16578;53.266;7.920;2022-07-17T13:11:11;3.63;;;1.80;;
29662;SDS011;16578;53.266;7.920;2022-07-17T13:13:37;2.08;;;1.60;;
29662;SDS011;16578;53.266;7.920;2022-07-17T13:16:03;2.92;;;1.40;;
29662;SDS011;16578;53.266;7.920;2022-07-17T13:18:29;2.85;;;1.80;;
29662;SDS011;16578;53.266;7.920;2022-07-17T13:20:55;2.47;;;1.60;;
29662;SDS011;16578;53.266;7.920;2022-07-17T13:23:20;3.90;;;1.90;;
29662;SDS011;16578;53.266;7.920;2022-07-17T13:25:46;4.05;;;1.80;;
29662;SDS011;16578;53.266;7.920;2022-07-17T13:28:11;4.68;;;2.22;;
29662;SDS011;16578;53.266;7.920;2022-07-17T13:30:37;3.28;;;1.77;;
29662;SDS011;16578;53.266;7.920;2022-07-17T13:33:05;3.88;;;1.75;;
29662;SDS011;16578;53.266;7.920;2022-07-17T13:35:30;4.55;;;2.25;;
29662;SDS011;16578;53.266;7.920;2022-07-17T13:37:56;2.00;;;1.73;;
29662;SDS011;16578;53.266;7.920;2022-07-17T13:40:22;3.78;;;2.10;;
29662;SDS011;16578;53.266;7.920;2022-07-17T13:42:53;3.85;;;1.80;;
29662;SDS011;16578;53.266;7.920;2022-07-17T13:45:18;2.88;;;2.10;;
29662;SDS011;16578;53.266;7.920;2022-07-17T13:47:44;4.97;;;2.80;;
29662;SDS011;16578;53.266;7.920;2022-07-17T13:50:10;5.50;;;2.40;;
29662;SDS011;16578;53.266;7.920;2022-07-17T13:52:36;3.47;;;2.25;;
29662;SDS011;16578;53.266;7.920;2022-07-17T13:55:03;3.85;;;1.88;;
29662;SDS011;16578;53.266;7.920;2022-07-17T13:57:30;3.60;;;2.13;;
29662;SDS011;16578;53.266;7.920;2022-07-17T13:59:55;7.03;;;2.08;;
29662;SDS011;16578;53.266;7.920;2022-07-17T14:02:21;3.63;;;2.13;;
29662;SDS011;16578;53.266;7.920;2022-07-17T14:04:47;3.13;;;1.98;;
29662;SDS011;16578;53.266;7.920;2022-07-17T14:07:13;3.70;;;2.33;;
29662;SDS011;16578;53.266;7.920;2022-07-17T14:09:39;3.63;;;2.05;;
29662;SDS011;16578;53.266;7.920;2022-07-17T14:12:05;4.10;;;2.17;;
29662;SDS011;16578;53.266;7.920;2022-07-17T14:14:31;3.33;;;1.92;;
29662;SDS011;16578;53.266;7.920;2022-07-17T14:16:56;3.78;;;2.60;;
29662;SDS011;16578;53.266;7.920;2022-07-17T14:19:22;5.13;;;4.22;;
29662;SDS011;16578;53.266;7.920;2022-07-17T14:21:48;4.72;;;3.38;;
29662;SDS011;16578;53.266;7.920;2022-07-17T14:24:14;3.42;;;2.70;;
29662;SDS011;16578;53.266;7.920;2022-07-17T14:26:40;3.80;;;2.42;;
29662;SDS011;16578;53.266;7.920;2022-07-17T14:29:07;4.32;;;2.45;;
29662;SDS011;16578;53.266;7.920;2022-07-17T14:31:33;12.75;;;2.88;;
29662;SDS011;16578;53.266;7.920;2022-07-17T14:33:59;3.90;;;2.40;;
29662;SDS011;16578;53.266;7.920;2022-07-17T14:36:25;2.92;;;2.58;;
29662;SDS011;16578;53.266;7.920;2022-07-17T14:38:51;3.10;;;2.20;;
29662;SDS011;16578;53.266;7.920;2022-07-17T14:41:16;3.00;;;2.47;;
29662;SDS011;16578;53.266;7.920;2022-07-17T14:43:46;3.10;;;2.50;;
29662;SDS011;16578;53.266;7.920;2022-07-17T14:46:12;2.83;;;2.20;;
29662;SDS011;16578;53.266;7.920;2022-07-17T14:48:37;2.25;;;2.05;;
29662;SDS011;16578;53.266;7.920;2022-07-17T14:51:03;3.95;;;2.47;;
29662;SDS011;16578;53.266;7.920;2022-07-17T14:53:28;3.47;;;2.50;;
29662;SDS011;16578;53.266;7.920;2022-07-17T14:55:54;4.30;;;2.80;;
29662;SDS011;16578;53.266;7.920;2022-07-17T14:58:20;4.95;;;2.90;;
29662;SDS011;16578;53.266;7.920;2022-07-17T15:00:47;4.28;;;2.67;;
29662;SDS011;16578;53.266;7.920;2022-07-17T15:03:12;3.08;;;2.50;;
29662;SDS011;16578;53.266;7.920;2022-07-17T15:05:38;2.88;;;2.60;;